Time;durP1;ratioP1;P1;durP2;ratioP2;P2;SDS_P1;SDS_P2;PMS_P1;PMS_P2;Temp;Humidity;BMP_temperature;BMP_pressure;BME280_temperature;BME280_humidity;BME280_pressure;Samples;Min_cycle;Max_cycle;Signal;HPM_P1;HPM_P2
2023/10/11 00:02:14;;;;;;;0.60;0.60;;;14.50;53.80;;;;;;4903648;29;20204;-83
2023/10/11 00:04:44;;;;;;;0.20;0.20;;;14.50;54.00;;;;;;4911250;29;20259;-86
2023/10/11 00:07:12;;;;;;;0.30;0.30;;;14.50;53.90;;;;;;4910923;29;20236;-86
2023/10/11 00:09:41;;;;;;;0.57;0.57;;;14.50;54.20;;;;;;4904120;29;20196;-85
2023/10/11 00:12:14;;;;;;;0.23;0.23;;;14.40;54.30;;;;;;4909405;29;20235;-87
2023/10/11 00:14:42;;;;;;;0.20;0.20;;;14.40;54.60;;;;;;4910078;29;20196;-85
2023/10/11 00:17:11;;;;;;;0.47;0.47;;;14.40;54.90;;;;;;4912414;29;20200;-86
2023/10/11 00:19:40;;;;;;;2.27;0.77;;;14.40;54.70;;;;;;4914287;29;20267;-88
2023/10/11 00:22:08;;;;;;;0.30;0.30;;;14.40;54.70;;;;;;4910833;29;20312;-86
2023/10/11 00:24:37;;;;;;;0.93;0.80;;;14.30;54.90;;;;;;4912033;29;20228;-85
2023/10/11 00:27:10;;;;;;;0.77;0.77;;;14.30;54.90;;;;;;4907687;29;20199;-85
2023/10/11 00:29:40;;;;;;;4.00;0.50;;;14.30;55.10;;;;;;4913524;29;20664;-85
2023/10/11 00:32:09;;;;;;;0.73;0.73;;;14.30;55.30;;;;;;4908112;29;20204;-86
2023/10/11 00:34:38;;;;;;;0.30;0.30;;;14.20;55.20;;;;;;4913617;29;20719;-86
2023/10/11 00:37:09;;;;;;;0.70;0.70;;;14.30;55.10;;;;;;4912449;29;20228;-86
2023/10/11 00:39:38;;;;;;;0.30;0.30;;;14.30;55.40;;;;;;4906486;29;20628;-85
2023/10/11 00:42:06;;;;;;;0.93;0.83;;;14.20;55.50;;;;;;4906797;29;20203;-84
2023/10/11 00:44:35;;;;;;;1.00;0.83;;;14.20;55.60;;;;;;4908388;29;20738;-85
2023/10/11 00:47:08;;;;;;;0.70;0.70;;;14.20;55.80;;;;;;4913452;29;20207;-86
2023/10/11 00:49:39;;;;;;;2.67;0.87;;;14.20;55.90;;;;;;4905737;29;20622;-85
2023/10/11 00:52:08;;;;;;;2.87;1.23;;;14.20;55.70;;;;;;4911994;29;20192;-87
2023/10/11 00:54:43;;;;;;;1.50;1.40;;;14.20;56.10;;;;;;4913296;29;20691;-87
2023/10/11 00:57:15;;;;;;;0.30;0.30;;;14.10;56.30;;;;;;4912417;29;20622;-87
2023/10/11 00:59:44;;;;;;;0.20;0.20;;;14.10;56.10;;;;;;4903249;29;20889;-86
2023/10/11 01:02:15;;;;;;;0.97;0.97;;;14.10;56.50;;;;;;4899413;29;20244;-87
2023/10/11 01:04:44;;;;;;;0.40;0.40;;;14.10;56.60;;;;;;4907882;29;20224;-87
2023/10/11 01:07:13;;;;;;;0.50;0.50;;;14.10;56.40;;;;;;4914871;29;20236;-86
2023/10/11 01:09:43;;;;;;;0.60;0.60;;;14.10;56.80;;;;;;4910306;29;20660;-85
2023/10/11 01:12:15;;;;;;;21.03;1.17;;;14.10;56.50;;;;;;4904172;29;20256;-85
2023/10/11 01:17:31;;;;;;;0.30;0.30;;;14.00;56.80;;;;;;4910368;29;20259;-83
2023/10/11 01:20:13;;;;;;;0.60;0.60;;;14.00;56.90;;;;;;4905062;29;20547;-86
2023/10/11 01:22:44;;;;;;;1.43;1.20;;;14.00;57.00;;;;;;4909614;29;20204;-84
2023/10/11 01:25:18;;;;;;;0.50;0.50;;;14.00;56.80;;;;;;4911641;29;20223;-85
2023/10/11 01:27:47;;;;;;;0.60;0.60;;;14.00;56.90;;;;;;4905712;29;20192;-87
2023/10/11 01:30:16;;;;;;;7.20;1.63;;;14.00;57.00;;;;;;4913010;29;20252;-85
2023/10/11 01:32:44;;;;;;;1.10;0.57;;;14.00;57.00;;;;;;4909726;29;20204;-87
2023/10/11 01:35:19;;;;;;;0.43;0.37;;;13.90;57.30;;;;;;4899873;29;20656;-87
2023/10/11 01:37:49;;;;;;;2.00;1.70;;;13.80;57.70;;;;;;4910428;29;20195;-85
2023/10/11 01:40:21;;;;;;;0.40;0.40;;;13.80;57.70;;;;;;4907789;29;22057;-85
2023/10/11 01:42:52;;;;;;;1.63;0.87;;;13.80;57.80;;;;;;4907945;29;20196;-86
2023/10/11 01:45:23;;;;;;;0.63;0.63;;;13.80;57.50;;;;;;4906396;29;20849;-86
2023/10/11 01:47:56;;;;;;;0.50;0.50;;;13.80;57.80;;;;;;4905374;29;20680;-85
2023/10/11 01:50:25;;;;;;;0.30;0.30;;;13.80;57.90;;;;;;4911668;29;20218;-86
2023/10/11 01:52:55;;;;;;;0.50;0.50;;;13.70;58.20;;;;;;4907284;29;20196;-86
2023/10/11 01:55:24;;;;;;;0.30;0.30;;;13.70;58.00;;;;;;4903587;29;20605;-86
2023/10/11 01:57:52;;;;;;;1.37;0.60;;;13.70;57.70;;;;;;4910145;29;21227;-85
2023/10/11 02:00:24;;;;;;;1.20;1.10;;;13.70;57.90;;;;;;4911533;29;20200;-86
2023/10/11 02:02:58;;;;;;;0.47;0.47;;;13.80;57.70;;;;;;4908975;29;20669;-87
2023/10/11 02:05:31;;;;;;;0.30;0.30;;;13.70;57.70;;;;;;4896634;29;20689;-87
2023/10/11 02:08:04;;;;;;;0.93;0.73;;;13.70;57.50;;;;;;4908714;29;20193;-85
2023/10/11 02:10:36;;;;;;;0.20;0.20;;;13.80;57.50;;;;;;4907811;29;20196;-86
2023/10/11 02:13:06;;;;;;;1.17;1.07;;;13.80;57.30;;;;;;4909818;29;20200;-86
2023/10/11 02:15:35;;;;;;;0.30;0.30;;;13.80;57.20;;;;;;4913991;29;20681;-85
2023/10/11 02:18:08;;;;;;;0.40;0.40;;;13.80;57.30;;;;;;4910316;29;20653;-87
2023/10/11 02:20:44;;;;;;;0.70;0.63;;;13.80;57.20;;;;;;4904222;29;20255;-88
2023/10/11 02:23:14;;;;;;;0.40;0.40;;;13.80;57.10;;;;;;4905259;29;20247;-87
2023/10/11 02:25:43;;;;;;;0.40;0.40;;;13.90;57.00;;;;;;4911179;29;20695;-85
2023/10/11 02:28:14;;;;;;;0.43;0.43;;;13.90;56.90;;;;;;4901400;29;20967;-86
2023/10/11 02:30:43;;;;;;;0.73;0.73;;;13.90;56.80;;;;;;4906282;29;20554;-85
2023/10/11 02:33:11;;;;;;;0.60;0.60;;;13.90;56.90;;;;;;4908304;29;20239;-87
2023/10/11 02:35:53;;;;;;;0.67;0.67;;;13.90;57.50;;;;;;4913012;29;20243;-86
2023/10/11 02:38:23;;;;;;;0.77;0.67;;;13.90;57.10;;;;;;4906953;29;20235;-84
2023/10/11 02:40:56;;;;;;;0.53;0.53;;;13.90;57.20;;;;;;4909296;29;20282;-87
2023/10/11 02:43:25;;;;;;;1.03;0.83;;;13.80;57.40;;;;;;4906115;29;20251;-87
2023/10/11 02:45:54;;;;;;;0.60;0.60;;;13.80;57.50;;;;;;4906705;29;20322;-85
2023/10/11 02:48:23;;;;;;;0.53;0.53;;;13.70;57.70;;;;;;4906266;29;20658;-86
2023/10/11 02:50:54;;;;;;;0.53;0.53;;;13.70;57.60;;;;;;4910336;29;20231;-85
2023/10/11 02:53:24;;;;;;;3.00;1.03;;;13.70;57.60;;;;;;4906118;29;20602;-85
2023/10/11 02:55:59;;;;;;;0.60;0.50;;;13.60;57.60;;;;;;4901343;29;20256;-86
2023/10/11 02:58:29;;;;;;;4.97;2.07;;;13.60;57.60;;;;;;4911128;29;20259;-86
2023/10/11 03:01:02;;;;;;;1.13;1.03;;;13.60;57.70;;;;;;4907714;29;20699;-85
2023/10/11 03:03:49;;;;;;;1.60;0.73;;;13.50;57.80;;;;;;4907285;29;20588;-85
2023/10/11 03:06:19;;;;;;;2.13;1.00;;;13.50;57.80;;;;;;4913847;29;20214;-85
2023/10/11 03:08:51;;;;;;;0.30;0.30;;;13.50;57.70;;;;;;4910022;29;20243;-86
2023/10/11 03:11:20;;;;;;;0.30;0.30;;;13.50;57.70;;;;;;4897078;29;20559;-86
2023/10/11 03:13:48;;;;;;;0.30;0.30;;;13.40;57.60;;;;;;4914196;29;20282;-88
2023/10/11 03:16:18;;;;;;;0.30;0.30;;;13.40;57.50;;;;;;4913724;29;20199;-86
2023/10/11 03:18:47;;;;;;;1.20;0.80;;;13.40;57.40;;;;;;4912420;29;20570;-85
2023/10/11 03:21:17;;;;;;;1.03;0.93;;;13.40;57.50;;;;;;4913423;29;20231;-85
2023/10/11 03:23:54;;;;;;;0.30;0.30;;;13.40;57.50;;;;;;4907222;29;20196;-85
2023/10/11 03:26:31;;;;;;;1.33;1.07;;;13.40;57.60;;;;;;4912286;29;20203;-85
2023/10/11 03:29:03;;;;;;;0.80;0.80;;;13.40;57.70;;;;;;4902459;29;20203;-85
2023/10/11 03:31:33;;;;;;;0.40;0.40;;;13.40;57.70;;;;;;4901155;29;20216;-86
2023/10/11 03:34:10;;;;;;;0.97;0.60;;;13.30;57.60;;;;;;4906151;29;20235;-86
2023/10/11 03:36:49;;;;;;;0.70;0.70;;;13.30;57.60;;;;;;4912851;29;20659;-84
2023/10/11 03:39:28;;;;;;;21.10;2.60;;;13.30;57.60;;;;;;4908508;29;20195;-87
2023/10/11 03:42:06;;;;;;;1.00;0.90;;;13.30;57.60;;;;;;4902184;29;20566;-86
2023/10/11 03:44:36;;;;;;;0.20;0.20;;;13.30;57.50;;;;;;4904993;29;20671;-86
2023/10/11 03:47:08;;;;;;;1.10;0.87;;;13.30;57.60;;;;;;4910165;29;20219;-85
2023/10/11 03:49:50;;;;;;;0.40;0.40;;;13.30;57.90;;;;;;4912331;29;20208;-86
2023/10/11 03:52:25;;;;;;;1.13;0.57;;;13.30;58.30;;;;;;4913391;29;20220;-86
2023/10/11 03:55:04;;;;;;;0.60;0.60;;;13.20;58.40;;;;;;4915624;29;20206;-87
2023/10/11 03:57:36;;;;;;;1.43;1.33;;;13.20;58.60;;;;;;4909481;29;20207;-86
2023/10/11 04:00:24;;;;;;;4.60;0.70;;;13.10;58.30;;;;;;4914482;29;20193;-88
2023/10/11 04:02:56;;;;;;;0.40;0.40;;;13.10;58.90;;;;;;4901607;29;20211;-86
2023/10/11 04:05:29;;;;;;;1.53;1.40;;;13.10;59.00;;;;;;4916731;29;20227;-84
2023/10/11 04:08:05;;;;;;;0.40;0.40;;;13.00;59.40;;;;;;4927088;29;20190;-85
2023/10/11 04:10:42;;;;;;;0.43;0.43;;;13.00;59.10;;;;;;4933994;29;20263;-86
2023/10/11 04:13:14;;;;;;;0.60;0.60;;;13.00;59.40;;;;;;4933688;29;20271;-86
2023/10/11 04:15:49;;;;;;;6.63;1.23;;;12.90;59.20;;;;;;4929473;29;20196;-86
2023/10/11 04:34:11;;;;;;;0.33;0.33;;;12.80;59.70;;;;;;4096785;27;20298;-88
2023/10/11 04:36:51;;;;;;;0.77;0.60;;;12.70;59.70;;;;;;4914453;29;20609;-88
2023/10/11 04:47:10;;;;;;;0.60;0.60;;;12.70;59.80;;;;;;4808537;23;20263;-85
2023/10/11 04:49:43;;;;;;;0.90;0.80;;;12.70;59.70;;;;;;4890025;29;20454;-86
2023/10/11 04:52:22;;;;;;;0.30;0.30;;;12.70;60.00;;;;;;4890376;29;20192;-85
2023/10/11 04:54:55;;;;;;;0.80;0.77;;;12.70;59.90;;;;;;4892045;29;20200;-86
2023/10/11 04:57:36;;;;;;;2.87;1.50;;;12.70;59.90;;;;;;4888579;29;20208;-86
2023/10/11 05:00:10;;;;;;;1.60;1.17;;;12.70;60.30;;;;;;4895405;29;20192;-86
2023/10/11 05:02:39;;;;;;;0.63;0.63;;;12.60;60.70;;;;;;4882130;29;20203;-85
2023/10/11 05:05:12;;;;;;;2.53;1.50;;;12.60;61.30;;;;;;4895481;29;20234;-85
2023/10/11 05:07:46;;;;;;;0.80;0.77;;;12.60;61.30;;;;;;4883310;29;20213;-84
2023/10/11 05:10:30;;;;;;;6.37;1.47;;;12.60;61.30;;;;;;4887927;29;20676;-86
2023/10/11 05:13:05;;;;;;;2.47;1.47;;;12.60;61.30;;;;;;4885874;29;20276;-88
2023/10/11 05:15:42;;;;;;;0.73;0.70;;;12.50;61.40;;;;;;4889424;29;20200;-88
2023/10/11 05:18:18;;;;;;;1.07;0.70;;;12.50;61.60;;;;;;4891050;29;20696;-87
2023/10/11 05:21:00;;;;;;;1.93;0.43;;;12.50;61.40;;;;;;4891132;29;20267;-86
2023/10/11 05:23:52;;;;;;;0.33;0.33;;;12.50;61.80;;;;;;4884902;29;20204;-86
2023/10/11 05:29:23;;;;;;;1.20;1.10;;;12.50;62.00;;;;;;4894583;29;20230;-88
2023/10/11 05:32:19;;;;;;;1.83;1.13;;;12.50;61.90;;;;;;4895474;29;20193;-89
2023/10/11 05:35:06;;;;;;;0.63;0.63;;;12.50;61.70;;;;;;4895613;29;20220;-86
2023/10/11 05:51:39;;;;;;;1.20;1.10;;;12.70;61.20;;;;;;4892679;29;20251;-88
2023/10/11 05:54:09;;;;;;;0.50;0.50;;;12.70;61.00;;;;;;4894338;29;20200;-86
2023/10/11 05:56:45;;;;;;;0.33;0.33;;;12.80;60.90;;;;;;4899029;29;20214;-84
2023/10/11 05:59:14;;;;;;;1.33;1.23;;;12.80;60.80;;;;;;4896667;29;20200;-87
2023/10/11 06:01:45;;;;;;;3.60;1.53;;;12.90;60.90;;;;;;4896361;29;20260;-87
2023/10/11 06:04:14;;;;;;;1.17;1.07;;;13.00;60.60;;;;;;4890723;29;20211;-87
2023/10/11 06:06:46;;;;;;;0.33;0.33;;;13.00;60.50;;;;;;4893671;29;20307;-86
2023/10/11 06:09:17;;;;;;;1.97;1.27;;;13.10;60.50;;;;;;4891400;29;20740;-89
2023/10/11 06:11:49;;;;;;;1.23;0.97;;;13.20;60.30;;;;;;4897475;29;20196;-87
2023/10/11 06:14:19;;;;;;;0.43;0.43;;;13.30;59.90;;;;;;4890083;29;20205;-89
2023/10/11 06:16:57;;;;;;;0.97;0.97;;;13.40;59.90;;;;;;4891115;29;20205;-88
2023/10/11 06:19:27;;;;;;;1.53;1.17;;;13.40;59.70;;;;;;4889204;29;21097;-85
2023/10/11 06:21:58;;;;;;;0.70;0.70;;;13.50;59.60;;;;;;4882254;29;21955;-91
2023/10/11 06:24:30;;;;;;;1.23;0.73;;;13.60;59.60;;;;;;4893419;29;20193;-88
2023/10/11 06:28:09;;;;;;;0.50;0.50;;;13.70;59.50;;;;;;4886029;29;20236;-89
2023/10/11 06:30:06;;;;;;;0.80;0.80;;;13.70;59.40;;;;;;4895721;29;20200;-88
2023/10/11 06:32:36;;;;;;;3.43;0.70;;;13.80;59.20;;;;;;4891119;29;20204;-87
2023/10/11 06:35:06;;;;;;;2.47;0.67;;;13.90;59.10;;;;;;4888617;29;20196;-85
2023/10/11 06:37:36;;;;;;;0.83;0.47;;;13.90;59.00;;;;;;4881760;29;20275;-87
2023/10/11 06:40:14;;;;;;;0.80;0.53;;;14.00;58.90;;;;;;4882697;29;20693;-86
2023/10/11 06:42:44;;;;;;;1.23;1.13;;;14.00;58.80;;;;;;4889871;29;20287;-85
2023/10/11 06:45:17;;;;;;;1.17;0.80;;;14.10;58.80;;;;;;4881291;29;20215;-86
2023/10/11 06:47:50;;;;;;;0.40;0.40;;;14.10;58.80;;;;;;4887763;29;20239;-85
2023/10/11 06:50:24;;;;;;;0.80;0.80;;;14.20;58.60;;;;;;4890077;29;20205;-86
2023/10/11 06:52:53;;;;;;;0.40;0.40;;;14.30;58.60;;;;;;4883671;29;20208;-87
2023/10/11 06:55:25;;;;;;;0.67;0.57;;;14.40;58.60;;;;;;4885705;29;20292;-88
2023/10/11 06:57:56;;;;;;;1.90;0.60;;;14.50;58.60;;;;;;4887762;29;20215;-86
2023/10/11 07:00:28;;;;;;;1.07;0.47;;;14.60;58.50;;;;;;4891084;29;20200;-86
2023/10/11 07:03:06;;;;;;;1.07;0.93;;;14.70;58.30;;;;;;4889777;29;20272;-86
2023/10/11 07:05:46;;;;;;;0.53;0.53;;;14.80;58.20;;;;;;4883663;29;20223;-87
2023/10/11 07:08:17;;;;;;;1.63;1.23;;;14.90;58.10;;;;;;4894388;29;20192;-87
2023/10/11 07:11:00;;;;;;;1.43;0.67;;;15.00;58.10;;;;;;4896849;29;20284;-85
2023/10/11 07:13:49;;;;;;;3.60;0.70;;;15.00;57.80;;;;;;4896260;29;20196;-88
2023/10/11 07:16:19;;;;;;;1.50;0.97;;;15.20;57.80;;;;;;4895689;29;20223;-85
2023/10/11 07:18:54;;;;;;;1.30;0.97;;;15.20;57.30;;;;;;4895681;29;20203;-87
2023/10/11 07:21:26;;;;;;;0.53;0.50;;;15.30;57.30;;;;;;4897009;29;20212;-86
2023/10/11 07:24:04;;;;;;;0.90;0.90;;;15.40;56.90;;;;;;4884236;29;20662;-86
2023/10/11 07:26:56;;;;;;;0.53;0.43;;;15.40;56.80;;;;;;4886246;29;20232;-87
2023/10/11 07:29:26;;;;;;;0.93;0.87;;;15.50;56.60;;;;;;4878974;29;20288;-88
2023/10/11 07:31:59;;;;;;;0.50;0.50;;;15.50;56.50;;;;;;4895933;29;20200;-85
2023/10/11 07:34:31;;;;;;;1.73;0.80;;;15.60;56.50;;;;;;4893996;29;20209;-87
2023/10/11 07:37:05;;;;;;;0.90;0.70;;;15.70;56.30;;;;;;4895290;29;20210;-86
2023/10/11 07:39:38;;;;;;;0.57;0.57;;;15.70;56.10;;;;;;4894053;29;20197;-86
2023/10/11 07:42:09;;;;;;;0.63;0.63;;;15.80;56.00;;;;;;4896680;29;20600;-86
2023/10/11 07:44:40;;;;;;;0.47;0.47;;;15.90;56.00;;;;;;4885053;29;20192;-85
2023/10/11 07:47:15;;;;;;;0.37;0.37;;;16.00;55.60;;;;;;4894442;29;20243;-86
2023/10/11 07:49:45;;;;;;;0.43;0.43;;;16.10;54.60;;;;;;4893028;29;20192;-85
2023/10/11 07:52:19;;;;;;;0.50;0.50;;;16.10;54.60;;;;;;4892063;29;20558;-86
2023/10/11 07:54:51;;;;;;;0.87;0.87;;;16.20;54.80;;;;;;4889517;29;20196;-86
2023/10/11 07:57:24;;;;;;;0.73;0.73;;;16.30;54.60;;;;;;4885845;29;20205;-87
2023/10/11 07:59:55;;;;;;;0.73;0.57;;;16.40;54.20;;;;;;4876962;29;20201;-85
2023/10/11 08:02:31;;;;;;;0.40;0.40;;;16.40;54.10;;;;;;4877448;29;20214;-85
2023/10/11 08:05:00;;;;;;;0.67;0.67;;;16.50;54.80;;;;;;4885872;29;20638;-87
2023/10/11 08:07:29;;;;;;;0.83;0.73;;;16.50;54.00;;;;;;4887856;29;20716;-87
2023/10/11 08:10:10;;;;;;;0.60;0.60;;;16.60;53.90;;;;;;4908114;29;20193;-86
2023/10/11 08:12:39;;;;;;;0.67;0.67;;;16.70;54.00;;;;;;4893787;29;20207;-87
2023/10/11 08:15:14;;;;;;;0.57;0.57;;;16.80;53.70;;;;;;4877253;29;20193;-86
2023/10/11 08:17:43;;;;;;;0.43;0.40;;;16.90;53.60;;;;;;4883073;29;20215;-88
2023/10/11 08:20:15;;;;;;;0.70;0.40;;;16.90;53.60;;;;;;4894410;29;20266;-86
2023/10/11 08:22:47;;;;;;;1.73;1.40;;;17.00;52.90;;;;;;4897725;29;20648;-87
2023/10/11 08:25:16;;;;;;;1.47;1.03;;;17.10;52.80;;;;;;4896476;29;20195;-87
2023/10/11 08:27:51;;;;;;;0.87;0.87;;;17.10;52.60;;;;;;4889916;29;20231;-87
2023/10/11 08:30:23;;;;;;;4.53;1.17;;;17.20;52.80;;;;;;4871490;29;20236;-86
2023/10/11 08:32:51;;;;;;;1.80;1.27;;;17.30;52.30;;;;;;4891605;29;20296;-87
2023/10/11 08:35:26;;;;;;;0.60;0.60;;;17.30;51.30;;;;;;4885100;29;20211;-87
2023/10/11 08:38:02;;;;;;;1.17;1.07;;;17.40;51.60;;;;;;4894326;29;20279;-88
2023/10/11 08:40:35;;;;;;;1.73;0.63;;;17.40;51.80;;;;;;4883882;29;20211;-87
2023/10/11 08:43:04;;;;;;;0.40;0.40;;;17.40;51.80;;;;;;4897284;29;20652;-86
2023/10/11 08:45:43;;;;;;;0.87;0.50;;;17.50;51.70;;;;;;4896592;29;20291;-88
2023/10/11 08:48:12;;;;;;;0.77;0.60;;;17.60;51.60;;;;;;4894467;29;20239;-85
2023/10/11 08:50:51;;;;;;;0.93;0.73;;;17.70;51.50;;;;;;4898967;29;20709;-86
2023/10/11 08:53:27;;;;;;;4.73;0.90;;;17.70;51.30;;;;;;4895960;29;20645;-86
2023/10/11 08:55:56;;;;;;;1.40;0.63;;;17.80;51.50;;;;;;4897150;29;20283;-86
2023/10/11 08:58:28;;;;;;;1.40;0.93;;;17.80;51.30;;;;;;4892706;29;20207;-85
2023/10/11 09:01:01;;;;;;;0.60;0.60;;;17.90;51.10;;;;;;4886314;29;20209;-88
2023/10/11 09:03:31;;;;;;;1.87;1.43;;;17.90;50.90;;;;;;4897884;29;20327;-86
2023/10/11 09:06:02;;;;;;;2.57;0.70;;;18.00;50.90;;;;;;4896888;29;20288;-87
2023/10/11 09:08:33;;;;;;;0.50;0.50;;;18.10;51.10;;;;;;4889571;29;20229;-86
2023/10/11 09:11:13;;;;;;;0.37;0.30;;;18.20;51.10;;;;;;4880219;29;20658;-86
2023/10/11 09:13:42;;;;;;;0.80;0.80;;;18.20;50.50;;;;;;4890090;29;20200;-85
2023/10/11 09:16:34;;;;;;;0.30;0.30;;;18.30;50.40;;;;;;4884733;29;20295;-86
2023/10/11 09:19:09;;;;;;;0.40;0.40;;;18.30;50.50;;;;;;4888202;29;20461;-88
2023/10/11 09:21:42;;;;;;;0.60;0.57;;;18.40;50.30;;;;;;4880340;29;20281;-87
2023/10/11 09:24:24;;;;;;;1.70;0.80;;;18.40;50.20;;;;;;4896024;29;20204;-87
2023/10/11 09:27:17;;;;;;;1.13;0.87;;;18.50;50.10;;;;;;4898524;29;20224;-87
2023/10/11 09:29:48;;;;;;;0.63;0.60;;;18.60;50.20;;;;;;4897889;29;21079;-86
2023/10/11 09:32:20;;;;;;;0.30;0.30;;;18.60;50.20;;;;;;4892748;29;20645;-86
2023/10/11 09:34:54;;;;;;;2.73;1.80;;;18.70;49.90;;;;;;4890537;29;20196;-87
2023/10/11 09:37:22;;;;;;;1.40;1.17;;;18.70;49.80;;;;;;4893596;29;20215;-85
2023/10/11 09:39:55;;;;;;;0.57;0.40;;;18.80;50.00;;;;;;4897753;29;20211;-86
2023/10/11 09:42:29;;;;;;;0.20;0.20;;;18.90;50.00;;;;;;4896281;29;20193;-86
2023/10/11 09:45:01;;;;;;;5.23;0.60;;;18.90;50.20;;;;;;4887153;29;20625;-88
2023/10/11 09:47:33;;;;;;;0.40;0.40;;;19.00;50.10;;;;;;4887411;29;20328;-86
2023/10/11 09:50:03;;;;;;;1.60;0.57;;;19.10;50.10;;;;;;4879746;29;20193;-87
2023/10/11 09:52:35;;;;;;;0.80;0.80;;;19.10;49.50;;;;;;4882301;29;20224;-88
2023/10/11 09:55:17;;;;;;;0.57;0.30;;;19.20;49.70;;;;;;4879157;29;20265;-86
2023/10/11 09:58:01;;;;;;;0.63;0.40;;;19.20;49.70;;;;;;4890401;29;20271;-87
2023/10/11 10:00:40;;;;;;;0.73;0.40;;;19.30;49.90;;;;;;4879874;29;20265;-87
2023/10/11 10:03:13;;;;;;;0.23;0.23;;;19.40;49.70;;;;;;4886081;29;20200;-87
2023/10/11 10:06:08;;;;;;;0.97;0.50;;;19.40;49.50;;;;;;4893746;29;20204;-85
2023/10/11 10:08:37;;;;;;;0.27;0.27;;;19.50;49.50;;;;;;4884524;29;20633;-87
2023/10/11 10:11:05;;;;;;;0.63;0.60;;;19.60;49.40;;;;;;4888192;29;20204;-86
2023/10/11 10:14:22;;;;;;;0.20;0.20;;;19.60;49.30;;;;;;4888817;29;20205;-87
2023/10/11 10:17:13;;;;;;;0.40;0.40;;;19.70;49.30;;;;;;4885251;29;20697;-86
2023/10/11 10:19:45;;;;;;;3.37;0.63;;;19.70;49.10;;;;;;4886781;29;20204;-86
2023/10/11 10:22:16;;;;;;;2.17;0.87;;;19.80;48.80;;;;;;4891001;29;20200;-89
2023/10/11 10:24:46;;;;;;;1.07;0.77;;;19.80;48.90;;;;;;4896860;29;20200;-88
2023/10/11 10:27:37;;;;;;;1.90;1.20;;;19.80;48.80;;;;;;4889989;29;20230;-86
2023/10/11 10:30:10;;;;;;;0.40;0.30;;;19.90;49.00;;;;;;4894252;29;20493;-88
2023/10/11 10:33:19;;;;;;;4.90;0.53;;;20.00;49.20;;;;;;4892988;29;20204;-87
2023/10/11 10:35:53;;;;;;;0.20;0.20;;;20.00;49.20;;;;;;4893623;29;20653;-89
2023/10/11 10:39:36;;;;;;;1.17;0.80;;;20.10;48.90;;;;;;4893122;29;20219;-87
2023/10/11 10:42:12;;;;;;;0.50;0.50;;;20.10;48.70;;;;;;4897425;29;20244;-87
2023/10/11 10:44:50;;;;;;;8.23;0.60;;;20.20;48.60;;;;;;4891533;29;20616;-87
2023/10/11 10:47:25;;;;;;;0.80;0.77;;;20.30;48.70;;;;;;4890937;29;20240;-85
2023/10/11 10:49:56;;;;;;;0.93;0.70;;;20.30;48.60;;;;;;4894815;29;20212;-88
2023/10/11 10:52:29;;;;;;;1.53;1.10;;;20.40;48.60;;;;;;4895078;29;20233;-89
2023/10/11 10:55:05;;;;;;;0.43;0.30;;;20.50;48.40;;;;;;4897417;29;20204;-88
2023/10/11 10:57:36;;;;;;;0.30;0.30;;;20.50;47.90;;;;;;4891412;29;20196;-85
2023/10/11 11:00:08;;;;;;;0.30;0.30;;;20.40;47.70;;;;;;4894645;29;20283;-85
2023/10/11 11:02:37;;;;;;;0.88;0.50;;;20.50;48.00;;;;;;4895004;29;20200;-87
2023/10/11 11:05:13;;;;;;;0.57;0.45;;;20.60;48.10;;;;;;4879869;29;20257;-88
2023/10/11 11:07:47;;;;;;;0.43;0.40;;;20.60;48.10;;;;;;4885204;29;20224;-90
2023/10/11 11:10:20;;;;;;;0.30;0.30;;;20.70;48.30;;;;;;4892697;29;20538;-88
2023/10/11 11:12:51;;;;;;;0.20;0.20;;;20.80;48.30;;;;;;4896646;29;20196;-89
2023/10/11 11:15:36;;;;;;;0.82;0.60;;;20.80;48.30;;;;;;4899777;29;20287;-90
2023/10/11 11:18:11;;;;;;;0.65;0.50;;;20.90;47.90;;;;;;4896857;29;20200;-90
2023/10/11 11:20:51;;;;;;;14.32;0.85;;;20.90;47.80;;;;;;4897264;29;20290;-87
2023/10/11 11:23:25;;;;;;;0.30;0.30;;;20.90;47.80;;;;;;4892848;29;20207;-89
2023/10/11 11:25:57;;;;;;;0.65;0.65;;;21.00;47.90;;;;;;4881774;29;20193;-90
2023/10/11 11:28:26;;;;;;;0.93;0.50;;;21.00;47.80;;;;;;4900447;29;20226;-89
2023/10/11 11:31:10;;;;;;;0.30;0.30;;;21.00;47.60;;;;;;4913052;29;20204;-88
2023/10/11 11:34:05;;;;;;;0.80;0.68;;;21.10;47.80;;;;;;4902163;29;20197;-88
2023/10/11 11:36:34;;;;;;;0.63;0.63;;;21.10;47.50;;;;;;4909305;29;20224;-86
2023/10/11 11:39:26;;;;;;;0.28;0.28;;;21.20;47.60;;;;;;4909457;29;20181;-87
2023/10/11 11:41:57;;;;;;;6.82;0.75;;;21.20;47.70;;;;;;4917769;29;20203;-87
2023/10/11 11:44:27;;;;;;;0.20;0.20;;;21.30;47.80;;;;;;4920732;29;20182;-88
2023/10/11 11:46:55;;;;;;;3.92;0.80;;;21.40;47.70;;;;;;4920621;29;20232;-89
2023/10/11 11:49:26;;;;;;;0.30;0.30;;;21.40;47.60;;;;;;4913065;29;20224;-87
2023/10/11 11:51:55;;;;;;;0.73;0.25;;;21.50;47.70;;;;;;4897123;29;20295;-87
2023/10/11 11:54:28;;;;;;;0.30;0.30;;;21.50;47.70;;;;;;4897318;29;20212;-87
2023/10/11 11:56:57;;;;;;;0.30;0.30;;;21.50;47.10;;;;;;4896679;29;20610;-88
2023/10/11 11:59:29;;;;;;;0.20;0.20;;;21.50;47.30;;;;;;4894090;29;20272;-87
2023/10/11 12:01:59;;;;;;;0.50;0.50;;;21.60;47.50;;;;;;4895786;29;20201;-88
2023/10/11 12:04:30;;;;;;;0.60;0.52;;;21.60;47.50;;;;;;4890490;29;20205;-85
2023/10/11 12:06:59;;;;;;;0.28;0.28;;;21.60;47.10;;;;;;4890547;29;20196;-86
2023/10/11 12:09:32;;;;;;;1.27;1.00;;;21.60;47.10;;;;;;4895306;29;20228;-88
2023/10/11 12:12:19;;;;;;;0.82;0.60;;;21.70;46.90;;;;;;4880393;29;21001;-87
2023/10/11 12:14:49;;;;;;;2.63;1.80;;;21.70;47.00;;;;;;4899836;29;20240;-86
2023/10/11 12:17:17;;;;;;;0.68;0.68;;;21.70;46.80;;;;;;4897968;29;20619;-87
2023/10/11 12:19:53;;;;;;;0.65;0.60;;;21.80;47.00;;;;;;4898418;29;20211;-86
2023/10/11 12:22:23;;;;;;;3.03;1.00;;;21.80;47.10;;;;;;4894053;29;20197;-84
2023/10/11 12:24:58;;;;;;;0.30;0.30;;;21.90;47.10;;;;;;4899185;29;20629;-87
2023/10/11 12:27:27;;;;;;;0.35;0.35;;;21.90;47.10;;;;;;4895044;29;20283;-85
2023/10/11 12:29:55;;;;;;;4.53;0.77;;;22.00;47.30;;;;;;4892291;29;20224;-85
2023/10/11 12:32:37;;;;;;;1.02;0.50;;;22.00;47.20;;;;;;4888671;29;20284;-86
2023/10/11 12:35:08;;;;;;;0.30;0.30;;;22.10;47.20;;;;;;4888705;29;20207;-85
2023/10/11 12:37:40;;;;;;;0.80;0.68;;;22.10;47.30;;;;;;4888693;29;20227;-89
2023/10/11 12:40:13;;;;;;;0.73;0.73;;;22.20;47.60;;;;;;4891058;29;20205;-87
2023/10/11 12:42:45;;;;;;;0.52;0.52;;;22.30;47.40;;;;;;4900395;29;20219;-89
2023/10/11 12:45:16;;;;;;;0.50;0.50;;;22.30;46.40;;;;;;4889498;29;20256;-86
2023/10/11 12:47:46;;;;;;;0.80;0.75;;;22.40;46.80;;;;;;4894784;29;20243;-85
2023/10/11 12:50:20;;;;;;;0.50;0.50;;;22.40;46.60;;;;;;4896924;29;20232;-87
2023/10/11 12:52:52;;;;;;;0.80;0.60;;;22.50;46.40;;;;;;4890051;29;20316;-85
2023/10/11 12:55:22;;;;;;;0.88;0.85;;;22.50;46.50;;;;;;4882867;29;20251;-86
2023/10/11 12:57:52;;;;;;;0.85;0.85;;;22.60;46.80;;;;;;4889252;29;21041;-85
2023/10/11 13:00:31;;;;;;;0.82;0.60;;;22.70;47.10;;;;;;4895793;29;20201;-86
2023/10/11 13:03:18;;;;;;;2.85;1.17;;;22.80;47.10;;;;;;4899130;29;20260;-86
2023/10/11 13:05:47;;;;;;;0.38;0.38;;;22.80;46.70;;;;;;4905669;29;20192;-87
2023/10/11 13:08:17;;;;;;;0.57;0.57;;;22.90;46.40;;;;;;4899823;29;20212;-87
2023/10/11 13:10:50;;;;;;;0.88;0.40;;;22.90;46.30;;;;;;4891978;29;20252;-86
2023/10/11 13:13:21;;;;;;;0.20;0.20;;;22.90;45.60;;;;;;4894545;29;20255;-87
2023/10/11 13:15:58;;;;;;;0.45;0.40;;;22.90;45.90;;;;;;4898197;29;20233;-87
2023/10/11 13:18:28;;;;;;;0.75;0.73;;;22.90;46.00;;;;;;4895482;29;20208;-89
2023/10/11 13:20:59;;;;;;;0.85;0.45;;;23.00;46.00;;;;;;4892452;29;20201;-85
2023/10/11 13:23:32;;;;;;;1.15;1.02;;;23.10;46.10;;;;;;4893291;29;20197;-86
2023/10/11 13:26:07;;;;;;;0.75;0.50;;;23.10;46.00;;;;;;4886767;29;20216;-86
2023/10/11 13:28:37;;;;;;;0.52;0.52;;;23.00;45.70;;;;;;4892187;29;20203;-86
2023/10/11 13:31:09;;;;;;;1.80;0.60;;;23.10;45.80;;;;;;4903453;29;20228;-88
2023/10/11 13:33:40;;;;;;;0.65;0.55;;;23.10;45.80;;;;;;4905415;29;20197;-86
2023/10/11 13:36:12;;;;;;;0.30;0.30;;;23.00;45.30;;;;;;4887428;29;20426;-87
2023/10/11 13:38:45;;;;;;;0.63;0.63;;;23.00;45.50;;;;;;4887583;29;20654;-82
2023/10/11 13:41:16;;;;;;;1.05;0.93;;;23.00;45.60;;;;;;4891546;29;20207;-82
2023/10/11 13:43:45;;;;;;;0.80;0.57;;;23.00;45.60;;;;;;4894530;29;20279;-83
2023/10/11 13:46:14;;;;;;;0.90;0.40;;;23.10;45.70;;;;;;4894682;29;20291;-82
2023/10/11 13:48:46;;;;;;;2.85;0.52;;;23.00;45.80;;;;;;4881294;29;20235;-81
2023/10/11 13:51:17;;;;;;;4.40;0.35;;;23.00;45.90;;;;;;4896100;29;20234;-83
2023/10/11 13:53:47;;;;;;;0.38;0.38;;;23.00;46.00;;;;;;4895056;29;20212;-84
2023/10/11 13:56:24;;;;;;;0.57;0.38;;;23.00;46.00;;;;;;4888908;29;20223;-80
2023/10/11 13:58:53;;;;;;;0.40;0.40;;;22.90;46.00;;;;;;4887013;29;20194;-82
2023/10/11 14:01:59;;;;;;;2.63;1.20;;;23.00;46.20;;;;;;4892097;29;20679;-82
2023/10/11 14:04:48;;;;;;;3.65;1.27;;;22.90;45.80;;;;;;4883660;29;20252;-82